^^
B2 Weather Station Historical Data
Daily Summary for November 30, 2018 Units:  English    Metric   Both
Daily Weekly Monthly Yearly Custom
  High: Low: Average:
Temperature: 43.7 °F 31.2 °F 35.9 °F
Dew Point: 39.5 °F 29.4 °F 33.8 °F
Humidity: 94% 84% 92%
Wind Speed: 11.5mph 0.0mph 2.9mph
Wind Gust: 8.2mph - -
Wind- - SSE
Pressure: 30.07 in 29.91 in -
Precipitation: 0.02 in    
Historical Graphs
 
 
Tabular Data for November 30, 2018
Time Temperature Dew Point Pressure Wind Wind Speed Wind Gust Humidity Rainfall Rate (Hourly) solar
00:04 34.0 °F 31.9 °F 29.94 in NNW 1.2 mph 0.6 mph 92% 0.00 in 0.00 W/m2
00:09 34.1 °F 32.3 °F 29.94 in Calm     93% 0.00 in 0.00 W/m2
00:14 34.2 °F 32.1 °F 29.94 in NNW 2.0 mph 1.2 mph 92% 0.00 in 0.00 W/m2
00:19 34.1 °F 32.0 °F 29.93 in NNW 1.2 mph 0.1 mph 92% 0.00 in 0.00 W/m2
00:24 34.0 °F 31.9 °F 29.93 in NNW 1.2 mph   92% 0.00 in 0.00 W/m2
00:29 33.9 °F 31.8 °F 29.93 in NNW 3.0 mph 0.8 mph 92% 0.00 in 0.00 W/m2
00:34 33.9 °F 32.1 °F 29.94 in Calm     93% 0.00 in 0.00 W/m2
00:39 34.0 °F 32.2 °F 29.93 in Calm     93% 0.00 in 0.00 W/m2
00:44 34.1 °F 32.3 °F 29.94 in Calm     93% 0.01 in 0.00 W/m2
00:49 34.2 °F 32.4 °F 29.94 in NNW 1.2 mph   93% 0.01 in 0.00 W/m2
00:54 34.3 °F 32.5 °F 29.93 in Calm     93% 0.01 in 0.00 W/m2
00:59 34.4 °F 32.6 °F 29.93 in Calm     93% 0.01 in 0.00 W/m2
01:04 34.4 °F 32.6 °F 29.93 in Calm     93% 0.02 in 0.00 W/m2
01:09 34.3 °F 32.5 °F 29.92 in Calm     93% 0.02 in 0.00 W/m2
01:14 34.2 °F 32.4 °F 29.91 in North 2.3 mph 0.3 mph 93% 0.02 in 0.00 W/m2
01:19 34.0 °F 31.9 °F 29.92 in North 2.3 mph 0.9 mph 92% 0.02 in 0.00 W/m2
01:24 33.8 °F 32.0 °F 29.92 in North 1.2 mph   93% 0.02 in 0.00 W/m2
01:29 33.6 °F 31.8 °F 29.93 in Calm     93% 0.02 in 0.00 W/m2
01:34 33.5 °F 31.7 °F 29.93 in Calm     93% 0.02 in 0.00 W/m2
01:39 33.5 °F 31.7 °F 29.93 in Calm     93% 0.02 in 0.00 W/m2
01:44 33.5 °F 31.7 °F 29.93 in North 3.5 mph 0.3 mph 93% 0.01 in 0.00 W/m2
01:49 33.5 °F 31.7 °F 29.93 in Calm     93% 0.01 in 0.00 W/m2
01:54 33.5 °F 31.7 °F 29.92 in North 1.0 mph   93% 0.01 in 0.00 W/m2
01:59 33.4 °F 31.6 °F 29.92 in North 2.3 mph 0.8 mph 93% 0.01 in 0.00 W/m2
02:04 33.3 °F 31.5 °F 29.92 in North 3.5 mph 2.3 mph 93% 0.00 in 0.00 W/m2
02:09 33.2 °F 31.4 °F 29.91 in North 2.3 mph 1.2 mph 93% 0.00 in 0.00 W/m2
02:14 33.1 °F 31.3 °F 29.92 in North 3.5 mph 1.3 mph 93% 0.00 in 0.00 W/m2
02:19 33.1 °F 31.3 °F 29.92 in North 3.5 mph 0.8 mph 93% 0.00 in 0.00 W/m2
02:24 33.1 °F 31.3 °F 29.92 in North 3.5 mph 1.2 mph 93% 0.00 in 0.00 W/m2
02:29 33.2 °F 31.4 °F 29.92 in North 1.0 mph 0.3 mph 93% 0.00 in 0.00 W/m2
02:34 33.2 °F 31.4 °F 29.92 in North 2.0 mph 0.6 mph 93% 0.00 in 0.00 W/m2
02:39 33.2 °F 31.4 °F 29.92 in North 1.0 mph 0.7 mph 93% 0.00 in 0.00 W/m2
02:44 33.2 °F 31.4 °F 29.92 in North 1.2 mph 0.4 mph 93% 0.00 in 0.00 W/m2
02:49 33.1 °F 31.3 °F 29.92 in North 1.0 mph 0.2 mph 93% 0.00 in 0.00 W/m2
02:54 33.0 °F 31.2 °F 29.93 in North 2.0 mph 1.3 mph 93% 0.00 in 0.00 W/m2
02:59 33.2 °F 31.7 °F 29.93 in Calm     94% 0.00 in 0.00 W/m2
03:04 33.2 °F 31.4 °F 29.93 in Calm     93% 0.00 in 0.00 W/m2
03:09 33.4 °F 31.6 °F 29.93 in Calm     93% 0.00 in 0.00 W/m2
03:14 33.5 °F 31.7 °F 29.93 in North 2.3 mph 0.4 mph 93% 0.00 in 0.00 W/m2
03:19 33.5 °F 31.7 °F 29.94 in North 2.3 mph 0.1 mph 93% 0.00 in 0.00 W/m2
03:24 33.6 °F 32.1 °F 29.94 in North 1.2 mph 0.1 mph 94% 0.00 in 0.00 W/m2
03:29 33.7 °F 32.2 °F 29.94 in North 2.3 mph   94% 0.00 in 0.00 W/m2
03:34 33.8 °F 32.3 °F 29.94 in North 1.2 mph 0.1 mph 94% 0.00 in 0.00 W/m2
03:39 33.8 °F 32.3 °F 29.93 in NNW 3.5 mph 1.5 mph 94% 0.00 in 0.00 W/m2
03:44 33.7 °F 31.9 °F 29.94 in NNW 3.5 mph 2.4 mph 93% 0.00 in 0.00 W/m2
03:49 33.7 °F 31.9 °F 29.94 in NNW 2.3 mph 1.2 mph 93% 0.00 in 0.00 W/m2
03:54 33.7 °F 31.9 °F 29.94 in NNW 3.5 mph 1.5 mph 93% 0.00 in 0.00 W/m2
03:59 33.7 °F 31.9 °F 29.94 in NNW 3.5 mph 2.1 mph 93% 0.00 in 0.00 W/m2
04:04 33.7 °F 32.2 °F 29.94 in NNW 2.3 mph 1.0 mph 94% 0.00 in 0.00 W/m2
04:09 33.8 °F 32.3 °F 29.94 in NNW 2.3 mph 0.8 mph 94% 0.00 in 0.00 W/m2
04:14 33.8 °F 32.3 °F 29.94 in Calm     94% 0.00 in 0.00 W/m2
04:19 33.9 °F 32.1 °F 29.94 in Calm     93% 0.00 in 0.00 W/m2
04:24 33.9 °F 32.1 °F 29.94 in Calm     93% 0.00 in 0.00 W/m2
04:29 33.9 °F 32.1 °F 29.94 in NNW 1.2 mph   93% 0.00 in 0.00 W/m2
04:34 33.8 °F 32.0 °F 29.94 in NNW 2.3 mph 0.9 mph 93% 0.00 in 0.00 W/m2
04:39 33.6 °F 31.8 °F 29.95 in NNW 3.5 mph 1.2 mph 93% 0.00 in 0.00 W/m2
04:44 33.5 °F 31.7 °F 29.95 in NNW 2.3 mph 0.5 mph 93% 0.00 in 0.00 W/m2
04:49 33.4 °F 31.6 °F 29.95 in NW 3.5 mph 0.2 mph 93% 0.00 in 0.00 W/m2
04:54 33.3 °F 31.5 °F 29.95 in NW 1.2 mph 0.6 mph 93% 0.00 in 0.00 W/m2
04:59 33.1 °F 31.3 °F 29.95 in NNW 3.5 mph 2.0 mph 93% 0.00 in 0.00 W/m2
05:04 32.9 °F 31.1 °F 29.95 in North 3.5 mph 2.2 mph 93% 0.00 in 0.00 W/m2
05:09 32.8 °F 31.0 °F 29.95 in NNW 3.5 mph 1.6 mph 93% 0.00 in 0.00 W/m2
05:14 32.6 °F 30.8 °F 29.95 in North 3.5 mph 2.8 mph 93% 0.00 in 0.00 W/m2
05:19 32.6 °F 30.8 °F 29.96 in NNW 3.5 mph 1.2 mph 93% 0.00 in 0.00 W/m2
05:24 32.6 °F 31.1 °F 29.96 in NNW 2.0 mph 0.8 mph 94% 0.00 in 0.00 W/m2
05:29 32.6 °F 31.1 °F 29.96 in NNW 2.0 mph 0.6 mph 94% 0.00 in 0.00 W/m2
05:34 32.5 °F 31.0 °F 29.96 in Calm     94% 0.00 in 0.00 W/m2
05:39 32.6 °F 31.1 °F 29.96 in NNW 2.3 mph 1.8 mph 94% 0.00 in 0.00 W/m2
05:44 32.6 °F 31.1 °F 29.96 in NNW 1.2 mph   94% 0.00 in 0.00 W/m2
05:49 32.5 °F 31.0 °F 29.96 in Calm     94% 0.00 in 0.00 W/m2
05:54 32.5 °F 31.0 °F 29.97 in NNW 1.2 mph 0.5 mph 94% 0.00 in 0.00 W/m2
05:59 32.4 °F 30.6 °F 29.97 in NNW 2.3 mph 1.2 mph 93% 0.00 in 0.00 W/m2
06:04 32.3 °F 30.5 °F 29.97 in NNW 1.2 mph   93% 0.00 in 0.00 W/m2
06:09 32.2 °F 30.4 °F 29.98 in NNW 1.2 mph 0.6 mph 93% 0.00 in 0.00 W/m2
06:14 32.2 °F 30.7 °F 29.98 in Calm     94% 0.00 in 0.00 W/m2
06:19 32.2 °F 30.4 °F 29.98 in Calm     93% 0.00 in 0.00 W/m2
06:24 32.2 °F 30.7 °F 29.98 in Calm     94% 0.00 in 0.00 W/m2
06:29 32.3 °F 30.8 °F 29.98 in Calm     94% 0.00 in 0.00 W/m2
06:34 32.3 °F 30.5 °F 29.98 in Calm     93% 0.00 in 0.00 W/m2
06:39 32.3 °F 30.5 °F 29.99 in Calm     93% 0.00 in 0.00 W/m2
06:44 32.2 °F 30.4 °F 29.99 in Calm     93% 0.00 in 0.00 W/m2
06:49 32.1 °F 30.3 °F 30.00 in Calm     93% 0.00 in 0.00 W/m2
06:54 32.1 °F 30.3 °F 30.00 in Calm     93% 0.00 in 0.00 W/m2
06:59 32.0 °F 30.2 °F 30.00 in Calm     93% 0.00 in 5.00 W/m2
07:04 31.6 °F 29.8 °F 30.00 in Calm     93% 0.00 in 7.00 W/m2
07:09 31.5 °F 29.7 °F 30.00 in Calm     93% 0.00 in 11.00 W/m2
07:14 31.5 °F 29.7 °F 30.01 in Calm     93% 0.00 in 14.00 W/m2
07:19 31.5 °F 29.7 °F 30.01 in Calm     93% 0.00 in 12.00 W/m2
07:24 31.4 °F 29.6 °F 30.01 in Calm     93% 0.00 in 25.00 W/m2
07:29 31.2 °F 29.4 °F 30.01 in Calm     93% 0.00 in 32.00 W/m2
07:34 31.3 °F 29.5 °F 30.01 in Calm     93% 0.00 in 37.00 W/m2
07:39 31.6 °F 29.8 °F 30.02 in Calm     93% 0.00 in 46.00 W/m2
07:44 31.9 °F 30.4 °F 30.02 in Calm     94% 0.00 in 53.00 W/m2
07:49 32.2 °F 30.4 °F 30.02 in Calm     93% 0.00 in 60.00 W/m2
07:54 32.4 °F 30.6 °F 30.03 in Calm     93% 0.00 in 67.00 W/m2
07:59 32.6 °F 31.1 °F 30.03 in Calm     94% 0.00 in 83.00 W/m2
08:04 32.7 °F 31.2 °F 30.03 in Calm     94% 0.00 in 51.00 W/m2
08:09 32.8 °F 31.0 °F 30.03 in Calm     93% 0.00 in 98.00 W/m2
08:14 32.9 °F 31.1 °F 30.03 in Calm     93% 0.00 in 121.00 W/m2
08:19 33.2 °F 31.7 °F 30.03 in NNW 2.3 mph 1.5 mph 94% 0.00 in 149.00 W/m2
08:24 33.4 °F 31.9 °F 30.03 in NNW 2.3 mph 1.2 mph 94% 0.00 in 160.00 W/m2
08:29 33.8 °F 32.3 °F 30.02 in NNW 2.3 mph 0.2 mph 94% 0.00 in 167.00 W/m2
08:34 34.3 °F 32.8 °F 30.03 in NNW 1.2 mph 0.4 mph 94% 0.00 in 185.00 W/m2
08:39 34.7 °F 33.2 °F 30.03 in Calm     94% 0.00 in 190.00 W/m2
08:44 34.8 °F 33.2 °F 30.03 in Calm     94% 0.00 in 160.00 W/m2
08:49 34.6 °F 33.1 °F 30.03 in Calm     94% 0.00 in 165.00 W/m2
08:54 34.8 °F 33.0 °F 30.03 in Calm     93% 0.00 in 134.00 W/m2
08:59 34.7 °F 33.2 °F 30.03 in Calm     94% 0.00 in 125.00 W/m2
09:04 34.8 °F 33.2 °F 30.03 in Calm     94% 0.00 in 132.00 W/m2
09:09 34.9 °F 33.3 °F 30.04 in Calm     94% 0.00 in 135.00 W/m2
09:14 35.1 °F 33.5 °F 30.04 in Calm     94% 0.00 in 128.00 W/m2
09:19 35.3 °F 33.5 °F 30.04 in Calm     93% 0.00 in 142.00 W/m2
09:24 35.3 °F 33.5 °F 30.04 in Calm     93% 0.00 in 123.00 W/m2
09:29 35.4 °F 33.6 °F 30.05 in Calm     93% 0.00 in 148.00 W/m2
09:34 35.4 °F 33.6 °F 30.05 in Calm     93% 0.00 in 130.00 W/m2
09:39 35.5 °F 33.7 °F 30.05 in Calm     93% 0.00 in 123.00 W/m2
09:44 35.6 °F 33.8 °F 30.06 in Calm     93% 0.00 in 139.00 W/m2
09:49 35.9 °F 34.1 °F 30.05 in Calm     93% 0.00 in 183.00 W/m2
09:54 36.3 °F 34.5 °F 30.04 in NE 3.5 mph 1.2 mph 93% 0.00 in 190.00 W/m2
09:59 36.6 °F 35.0 °F 30.04 in NNE 3.5 mph 1.1 mph 94% 0.00 in 250.00 W/m2
10:04 37.0 °F 35.2 °F 30.04 in NE 4.0 mph 2.2 mph 93% 0.00 in 223.00 W/m2
10:09 37.0 °F 35.2 °F 30.04 in NNE 5.0 mph 3.2 mph 93% 0.00 in 345.00 W/m2
10:14 37.2 °F 35.4 °F 30.05 in NE 3.5 mph 0.1 mph 93% 0.00 in 200.00 W/m2
10:19 37.3 °F 35.5 °F 30.05 in Calm     93% 0.00 in 216.00 W/m2
10:24 37.7 °F 35.9 °F 30.05 in NE 1.0 mph 0.3 mph 93% 0.00 in 241.00 W/m2
10:29 38.0 °F 36.4 °F 30.04 in NE 3.5 mph 2.2 mph 94% 0.00 in 348.00 W/m2
10:34 38.3 °F 36.5 °F 30.04 in NNE 3.5 mph 2.8 mph 93% 0.00 in 258.00 W/m2
10:39 38.5 °F 36.7 °F 30.04 in NE 3.5 mph 2.2 mph 93% 0.00 in 234.00 W/m2
10:44 38.7 °F 36.9 °F 30.03 in NNE 4.6 mph 3.1 mph 93% 0.00 in 239.00 W/m2
10:49 38.8 °F 36.9 °F 30.04 in NE 3.5 mph 1.3 mph 93% 0.00 in 229.00 W/m2
10:54 39.0 °F 37.1 °F 30.04 in ENE 3.5 mph 0.9 mph 93% 0.00 in 255.00 W/m2
10:59 39.3 °F 37.4 °F 30.03 in ENE 5.0 mph 4.3 mph 93% 0.00 in 468.00 W/m2
11:04 39.6 °F 37.7 °F 30.04 in ENE 4.6 mph 4.1 mph 93% 0.00 in 202.00 W/m2
11:09 39.4 °F 37.3 °F 30.04 in ENE 6.9 mph 3.5 mph 92% 0.00 in 200.00 W/m2
11:14 39.3 °F 37.2 °F 30.04 in ENE 1.2 mph   92% 0.00 in 190.00 W/m2
11:19 39.3 °F 37.2 °F 30.04 in NE 4.0 mph 2.3 mph 92% 0.00 in 195.00 W/m2
11:24 39.3 °F 36.9 °F 30.04 in Calm     91% 0.00 in 155.00 W/m2
11:29 39.2 °F 36.8 °F 30.04 in ENE 3.5 mph 2.1 mph 91% 0.00 in 163.00 W/m2
11:34 39.3 °F 37.2 °F 30.04 in Calm     92% 0.00 in 176.00 W/m2
11:39 39.5 °F 37.1 °F 30.04 in Calm     91% 0.00 in 220.00 W/m2
11:44 39.7 °F 37.3 °F 30.03 in Calm     91% 0.00 in 165.00 W/m2
11:49 39.7 °F 37.3 °F 30.03 in East 4.6 mph 2.4 mph 91% 0.00 in 218.00 W/m2
11:54 39.8 °F 37.4 °F 30.04 in East 4.6 mph   91% 0.00 in 190.00 W/m2
11:59 40.0 °F 37.6 °F 30.03 in Calm     91% 0.00 in 209.00 W/m2
12:04 40.0 °F 37.3 °F 30.04 in Calm     90% 0.00 in 165.00 W/m2
12:09 40.2 °F 37.8 °F 30.04 in Calm     91% 0.00 in 223.00 W/m2
12:14 40.4 °F 37.7 °F 30.04 in Calm     90% 0.00 in 214.00 W/m2
12:19 40.6 °F 37.9 °F 30.03 in SSE 5.8 mph 1.6 mph 90% 0.00 in 214.00 W/m2
12:24 40.7 °F 38.0 °F 30.03 in SE 3.5 mph   90% 0.00 in 207.00 W/m2
12:29 40.8 °F 37.8 °F 30.04 in East 3.0 mph 1.7 mph 89% 0.00 in 200.00 W/m2
12:34 40.9 °F 37.9 °F 30.04 in Calm     89% 0.00 in 176.00 W/m2
12:39 40.9 °F 37.9 °F 30.04 in Calm     89% 0.00 in 199.00 W/m2
12:44 41.1 °F 38.1 °F 30.04 in Calm     89% 0.00 in 211.00 W/m2
12:49 41.5 °F 38.5 °F 30.04 in SSE 3.5 mph 0.6 mph 89% 0.00 in 216.00 W/m2
12:54 41.6 °F 38.3 °F 30.04 in Calm     88% 0.00 in 171.00 W/m2
12:59 41.7 °F 38.4 °F 30.04 in Calm     88% 0.00 in 207.00 W/m2
13:04 41.8 °F 38.2 °F 30.03 in Calm     87% 0.00 in 83.00 W/m2
13:09 41.7 °F 38.1 °F 30.03 in Calm     87% 0.00 in 125.00 W/m2
13:14 42.0 °F 38.1 °F 30.03 in Calm     86% 0.00 in 104.00 W/m2
13:19 42.1 °F 38.2 °F 30.04 in Calm     86% 0.00 in 113.00 W/m2
13:24 42.1 °F 38.2 °F 30.04 in Calm     86% 0.00 in 287.00 W/m2
13:29 42.3 °F 38.4 °F 30.04 in Calm     86% 0.00 in 408.00 W/m2
13:34 42.8 °F 38.9 °F 30.04 in Calm     86% 0.00 in 397.00 W/m2
13:39 43.3 °F 39.4 °F 30.04 in Calm     86% 0.00 in 378.00 W/m2
13:44 43.5 °F 39.0 °F 30.04 in Calm     84% 0.00 in 369.00 W/m2
13:49 43.6 °F 39.4 °F 30.03 in NNE 3.5 mph 1.7 mph 85% 0.00 in 355.00 W/m2
13:54 43.7 °F 39.5 °F 30.03 in NNE 4.6 mph 2.8 mph 85% 0.00 in 306.00 W/m2
13:59 43.4 °F 39.2 °F 30.03 in NE 3.5 mph 0.7 mph 85% 0.00 in 248.00 W/m2
14:04 43.0 °F 38.8 °F 30.03 in NNE 3.5 mph 4.2 mph 85% 0.00 in 255.00 W/m2
14:09 42.9 °F 39.0 °F 30.03 in NNE 3.5 mph 2.6 mph 86% 0.00 in 260.00 W/m2
14:14 42.9 °F 39.0 °F 30.02 in NE 4.6 mph 3.3 mph 86% 0.00 in 132.00 W/m2
14:19 42.4 °F 38.5 °F 30.02 in NNE 4.6 mph 3.6 mph 86% 0.00 in 155.00 W/m2
14:24 42.2 °F 38.6 °F 30.02 in NE 6.9 mph 3.2 mph 87% 0.00 in 202.00 W/m2
14:29 42.2 °F 38.6 °F 30.02 in NNE 4.6 mph 3.1 mph 87% 0.00 in 97.00 W/m2
14:34 42.1 °F 38.5 °F 30.02 in NE 5.0 mph 4.7 mph 87% 0.00 in 176.00 W/m2
14:39 42.2 °F 38.9 °F 30.02 in NE 5.8 mph 4.1 mph 88% 0.00 in 199.00 W/m2
14:44 42.3 °F 39.0 °F 30.03 in NE 5.8 mph 4.6 mph 88% 0.00 in 167.00 W/m2
14:49 42.3 °F 39.0 °F 30.03 in NE 4.6 mph 2.8 mph 88% 0.00 in 199.00 W/m2
14:54 42.4 °F 39.1 °F 30.03 in NE 4.6 mph 3.2 mph 88% 0.00 in 160.00 W/m2
14:59 42.3 °F 39.0 °F 30.03 in NE 5.8 mph 3.9 mph 88% 0.00 in 63.00 W/m2
15:04 42.0 °F 38.7 °F 30.03 in NE 4.6 mph 3.1 mph 88% 0.00 in 148.00 W/m2
15:09 42.0 °F 38.7 °F 30.03 in NE 5.8 mph 3.2 mph 88% 0.00 in 141.00 W/m2
15:14 41.9 °F 38.6 °F 30.03 in NE 4.6 mph 4.5 mph 88% 0.00 in 49.00 W/m2
15:19 41.5 °F 38.2 °F 30.04 in ENE 4.6 mph 1.5 mph 88% 0.00 in 56.00 W/m2
15:24 41.1 °F 38.1 °F 30.04 in NE 3.0 mph 2.4 mph 89% 0.00 in 76.00 W/m2
15:29 41.0 °F 38.0 °F 30.04 in NE 3.5 mph 2.9 mph 89% 0.00 in 77.00 W/m2
15:34 40.9 °F 38.2 °F 30.04 in NE 4.6 mph 2.6 mph 90% 0.00 in 60.00 W/m2
15:39 40.7 °F 38.0 °F 30.04 in NE 3.5 mph 3.2 mph 90% 0.00 in 47.00 W/m2
15:44 40.5 °F 37.8 °F 30.04 in NE 3.5 mph 1.0 mph 90% 0.00 in 42.00 W/m2
15:49 40.2 °F 37.5 °F 30.04 in NNE 3.5 mph 1.1 mph 90% 0.00 in 28.00 W/m2
15:54 39.8 °F 37.1 °F 30.04 in Calm     90% 0.00 in 14.00 W/m2
15:59 39.5 °F 36.8 °F 30.04 in Calm     90% 0.00 in 14.00 W/m2
16:04 39.0 °F 36.3 °F 30.04 in Calm     90% 0.00 in 14.00 W/m2
16:09 38.6 °F 35.9 °F 30.05 in Calm     90% 0.00 in 11.00 W/m2
16:14 38.3 °F 35.9 °F 30.05 in NNE 1.2 mph   91% 0.00 in 7.00 W/m2
16:19 37.8 °F 35.1 °F 30.05 in Calm     90% 0.00 in 0.00 W/m2
16:24 37.3 °F 34.6 °F 30.04 in Calm     90% 0.00 in 0.00 W/m2
16:29 36.9 °F 34.5 °F 30.05 in Calm     91% 0.00 in 0.00 W/m2
16:34 36.5 °F 34.1 °F 30.04 in Calm     91% 0.00 in 0.00 W/m2
16:39 36.1 °F 33.7 °F 30.05 in Calm     91% 0.00 in 0.00 W/m2
16:44 35.8 °F 33.4 °F 30.04 in NE 3.5 mph 0.1 mph 91% 0.00 in 0.00 W/m2
16:49 35.5 °F 33.4 °F 30.04 in NE 3.0 mph 0.5 mph 92% 0.00 in 0.00 W/m2
16:54 35.2 °F 33.1 °F 30.04 in NE 2.3 mph 0.6 mph 92% 0.00 in 0.00 W/m2
16:59 35.0 °F 32.9 °F 30.04 in NE 1.0 mph 0.1 mph 92% 0.00 in 0.00 W/m2
17:04 34.9 °F 32.8 °F 30.03 in NE 3.5 mph 1.6 mph 92% 0.00 in 0.00 W/m2
17:09 34.9 °F 32.8 °F 30.04 in NE 1.2 mph 0.1 mph 92% 0.00 in 0.00 W/m2
17:14 34.7 °F 32.6 °F 30.04 in NE 1.2 mph 0.2 mph 92% 0.00 in 0.00 W/m2
17:19 34.4 °F 32.3 °F 30.04 in NE 1.2 mph 0.1 mph 92% 0.00 in 0.00 W/m2
17:24 34.3 °F 32.5 °F 30.04 in NE 1.2 mph   93% 0.00 in 0.00 W/m2
17:29 34.1 °F 32.3 °F 30.04 in Calm     93% 0.00 in 0.00 W/m2
17:34 33.9 °F 32.1 °F 30.04 in NNE 2.3 mph 0.1 mph 93% 0.00 in 0.00 W/m2
17:39 33.7 °F 31.9 °F 30.04 in NE 3.5 mph 1.5 mph 93% 0.00 in 0.00 W/m2
17:44 33.5 °F 31.7 °F 30.04 in NE 2.3 mph   93% 0.00 in 0.00 W/m2
17:49 33.5 °F 31.7 °F 30.04 in NNE 3.5 mph 0.8 mph 93% 0.00 in 0.00 W/m2
17:54 33.4 °F 31.6 °F 30.04 in NE 2.3 mph   93% 0.00 in 0.00 W/m2
17:59 33.4 °F 31.6 °F 30.04 in Calm     93% 0.00 in 0.00 W/m2
18:04 33.2 °F 31.4 °F 30.04 in Calm     93% 0 in 0.00 W/m2
18:09 33 °F 31.2 °F 30.05 in Calm     93% 0 in 0.00 W/m2
18:14 33.1 °F 31.3 °F 30.05 in Calm     93% 0 in 0.00 W/m2
18:19 33.2 °F 31.7 °F 30.05 in Calm     94% 0 in 0.00 W/m2
18:24 33.4 °F 31.6 °F 30.05 in Calm     93% 0 in 0.00 W/m2
18:29 33.6 °F 32.1 °F 30.06 in Calm     94% 0 in 0.00 W/m2
18:34 33.9 °F 32.4 °F 30.05 in Calm     94% 0 in 0.00 W/m2
18:39 34.2 °F 32.7 °F 30.06 in Calm     94% 0 in 0.00 W/m2
18:44 34.4 °F 32.9 °F 30.05 in Calm     94% 0 in 0.00 W/m2
18:49 34.8 °F 33.2 °F 30.05 in ENE 3.5 mph 1.5 mph 94% 0 in 0.00 W/m2
18:54 35.1 °F 33.5 °F 30.05 in ENE 3.5 mph 1.4 mph 94% 0 in 0.00 W/m2
18:59 35.4 °F 33.8 °F 30.05 in ENE 4 mph 3 mph 94% 0 in 0.00 W/m2
19:04 35.9 °F 34.3 °F 30.05 in East 5 mph 3.1 mph 94% 0 in 0.00 W/m2
19:09 36.2 °F 34.6 °F 30.05 in East 8.1 mph 5.2 mph 94% 0 in 0.00 W/m2
19:14 36.6 °F 35 °F 30.05 in East 5.8 mph 2.4 mph 94% 0 in 0.00 W/m2
19:19 36.9 °F 35.3 °F 30.06 in East 3.5 mph 2.4 mph 94% 0 in 0.00 W/m2
19:24 37 °F 35.4 °F 30.06 in East 4.6 mph 0.7 mph 94% 0 in 0.00 W/m2
19:29 37.1 °F 35.5 °F 30.06 in East 4.6 mph 2.8 mph 94% 0 in 0.00 W/m2
19:34 37.1 °F 35.5 °F 30.06 in East 8.1 mph 4.3 mph 94% 0 in 0.00 W/m2
19:39 37.1 °F 35.5 °F 30.07 in East 4.6 mph 4.3 mph 94% 0 in 0.00 W/m2
19:44 37.2 °F 35.6 °F 30.07 in ENE 8.1 mph 5.9 mph 94% 0 in 0.00 W/m2
19:49 37.3 °F 35.7 °F 30.06 in ENE 6.9 mph 5.3 mph 94% 0 in 0.00 W/m2
19:54 37.2 °F 35.6 °F 30.06 in ENE 6.9 mph 4.7 mph 94% 0 in 0.00 W/m2
19:59 37.1 °F 35.5 °F 30.07 in East 8.1 mph 4.5 mph 94% 0 in 0.00 W/m2
20:04 37.1 °F 35.5 °F 30.07 in East 9 mph 4.2 mph 94% 0 in 0.00 W/m2
20:09 37.1 °F 35.5 °F 30.07 in East 9.2 mph 6.4 mph 94% 0 in 0.00 W/m2
20:14 37 °F 35.4 °F 30.06 in East 9.2 mph 5.5 mph 94% 0 in 0.00 W/m2
20:19 36.9 °F 35.3 °F 30.06 in ENE 6.9 mph 4.2 mph 94% 0 in 0.00 W/m2
20:24 36.8 °F 35.2 °F 30.06 in East 6.9 mph 3.1 mph 94% 0 in 0.00 W/m2
20:29 36.8 °F 35.2 °F 30.06 in East 5.8 mph 1.2 mph 94% 0 in 0.00 W/m2
20:34 36.7 °F 35.1 °F 30.07 in East 6.9 mph 2.5 mph 94% 0 in 0.00 W/m2
20:39 36.6 °F 35 °F 30.06 in East 6.9 mph 3.5 mph 94% 0 in 0.00 W/m2
20:44 36.5 °F 34.9 °F 30.06 in East 5.8 mph 4.1 mph 94% 0 in 0.00 W/m2
20:49 36.4 °F 34.8 °F 30.05 in East 3.5 mph 0.5 mph 94% 0 in 0.00 W/m2
20:54 36.3 °F 34.7 °F 30.05 in East 6 mph 1.6 mph 94% 0 in 0.00 W/m2
20:59 36.1 °F 34.5 °F 30.05 in East 7 mph 4.9 mph 94% 0 in 0.00 W/m2
21:04 35.9 °F 34.3 °F 30.05 in ESE 6.9 mph 3.2 mph 94% 0 in 0.00 W/m2
21:09 35.8 °F 34.2 °F 30.05 in ESE 4.6 mph 1.4 mph 94% 0 in 0.00 W/m2
21:14 35.8 °F 34.2 °F 30.04 in ESE 6.9 mph 1.3 mph 94% 0 in 0.00 W/m2
21:19 35.8 °F 34.2 °F 30.04 in East 5.8 mph 2.9 mph 94% 0 in 0.00 W/m2
21:24 35.8 °F 34.2 °F 30.03 in East 8.1 mph 4.2 mph 94% 0 in 0.00 W/m2
21:29 35.7 °F 34.1 °F 30.03 in East 6.9 mph 3.8 mph 94% 0 in 0.00 W/m2
21:34 35.7 °F 34.1 °F 30.03 in East 4.6 mph 1.5 mph 94% 0 in 0.00 W/m2
21:39 35.6 °F 34 °F 30.02 in East 4.6 mph 2.3 mph 94% 0 in 0.00 W/m2
21:44 35.4 °F 33.8 °F 30.01 in East 8.1 mph 6.4 mph 94% 0 in 0.00 W/m2
21:49 35.3 °F 33.7 °F 30.01 in East 6.9 mph 4.9 mph 94% 0 in 0.00 W/m2
21:54 35.2 °F 33.6 °F 30.00 in ENE 8.1 mph 5.7 mph 94% 0 in 0.00 W/m2
21:59 35 °F 33.4 °F 30.01 in ENE 11.5 mph 7.2 mph 94% 0 in 0.00 W/m2
22:04 34.8 °F 33.2 °F 30.01 in East 11.5 mph 8.2 mph 94% 0 in 0.00 W/m2
22:09 34.6 °F 33.1 °F 30.01 in East 11.5 mph 7.8 mph 94% 0 in 0.00 W/m2
22:14 34.6 °F 33.1 °F 30.02 in East 9.2 mph 5.5 mph 94% 0 in 0.00 W/m2
22:19 34.5 °F 33 °F 30.01 in East 10.4 mph 6.1 mph 94% 0 in 0.00 W/m2
22:24 34.4 °F 32.9 °F 30.01 in East 8 mph 6.1 mph 94% 0 in 0.00 W/m2
22:29 34.3 °F 32.8 °F 30.01 in ENE 9.2 mph 6.2 mph 94% 0 in 0.00 W/m2
22:34 34.2 °F 32.7 °F 30.01 in ENE 10.4 mph 5.8 mph 94% 0 in 0.00 W/m2
22:39 34.1 °F 32.6 °F 30.01 in East 9.2 mph 6.9 mph 94% 0 in 0.00 W/m2
22:44 34 °F 32.5 °F 30.01 in ENE 11.5 mph 4.9 mph 94% 0 in 0.00 W/m2
22:49 34 °F 32.5 °F 30.01 in ENE 10.4 mph 7.1 mph 94% 0 in 0.00 W/m2
22:54 33.9 °F 32.4 °F 30.01 in ENE 9.2 mph 7.8 mph 94% 0 in 0.00 W/m2
22:59 33.9 °F 32.4 °F 30.01 in East 11.5 mph 7.3 mph 94% 0 in 0.00 W/m2
23:04 33.9 °F 32.4 °F 30.00 in East 10.4 mph 6 mph 94% 0 in 0.00 W/m2
23:09 33.9 °F 32.4 °F 30.00 in East 8.1 mph 4.7 mph 94% 0 in 0.00 W/m2
23:14 33.9 °F 32.4 °F 30.00 in East 6.9 mph 3.1 mph 94% 0 in 0.00 W/m2
23:19 34 °F 32.5 °F 30.01 in East 7 mph 6.5 mph 94% 0 in 0.00 W/m2
23:24 34.1 °F 32.6 °F 30.00 in East 5 mph 4.3 mph 94% 0 in 0.00 W/m2
23:29 34.1 °F 32.6 °F 30.00 in East 8 mph 3.5 mph 94% 0 in 0.00 W/m2
23:34 34.1 °F 32.6 °F 30.00 in ENE 10.4 mph 4.5 mph 94% 0 in 0.00 W/m2
23:39 34.1 °F 32.6 °F 29.99 in East 6.9 mph 5 mph 94% 0 in 0.00 W/m2
23:44 34.1 °F 32.6 °F 29.99 in East 10.4 mph 6.4 mph 94% 0 in 0.00 W/m2
23:49 34.1 °F 32.6 °F 30.00 in East 8.1 mph 4.6 mph 94% 0 in 0.00 W/m2
23:54 34.1 °F 32.6 °F 30.01 in ESE 9.2 mph 8.2 mph 94% 0 in 0.00 W/m2
23:59 34 °F 32.5 °F 30.01 in ESE 11.5 mph 7.4 mph 94% 0 in 0.00 W/m2
Bourbonnais, Illinois, USA
Compliments of Weather Underground - 2 mb